Flight Track Log - Related Links

Times and Time Zones

All times are in EDT time to prevent confusion due to time zone crossing. See the UAL1095 flight status page for this flight to view local times or setup timezone preferences in your user account.

Time Position Orientation Groundspeed Altitude Reporting Facility
EDT Latitude Longitude Course Direction KTS MPH feet Rate Location/Type
Tue 02:50:15 PM 40.7167 -74.1500 37° Northeast 176 203 1,400  Level New York TRACON
Tue 02:51:09 PM 40.7500 -74.1167 240° Southwest 215 247 2,800 2,074 Climbing New York TRACON
Tue 02:51:32 PM 40.4122 -74.2123 360° North  Level FlightAware Approximate
Tue 02:52:57 PM 40.7086 -74.2098 195° South 270 311 7,000  Level FlightAware ADS-B
Tue 02:53:13 PM 40.6884 -74.2170 197° South 273 314 7,800 3,273 Climbing FlightAware ADS-B
Tue 02:53:30 PM 40.6692 -74.2245 197° South 263 303 8,800 2,909 Climbing FlightAware ADS-B
Tue 02:53:46 PM 40.6501 -74.2322 197° South 264 304 9,400 2,323 Climbing FlightAware ADS-B
Tue 02:54:01 PM 40.6317 -74.2396 197° South 269 310 10,000 2,043 Climbing FlightAware ADS-B
Tue 02:54:33 PM 40.5931 -74.2556 196° South 278 320 11,000 1,680 Climbing FlightAware ADS-B
Tue 02:54:51 PM 40.5710 -74.2640 190° South 297 342 11,400 1,371 Climbing FlightAware ADS-B
Tue 02:55:08 PM 40.5471 -74.2695 181° South 312 359 11,800 1,355 Climbing FlightAware ADS-B
Tue 02:55:22 PM 40.5265 -74.2698 178° South 326 375 12,100 1,227 Climbing FlightAware ADS-B
Tue 02:55:52 PM 40.4783 -74.2675 178° South 353 406 12,700 1,701 Climbing FlightAware ADS-B
Tue 02:56:29 PM 40.4175 -74.2645 178° South 363 418 14,000 1,971 Climbing FlightAware ADS-B
Tue 02:57:02 PM 40.3615 -74.2623 178° South 374 430 15,000 1,727 Climbing FlightAware ADS-B
Tue 02:57:35 PM 40.3022 -74.2595 179° South 380 437 15,900 1,754 Climbing FlightAware ADS-B
Tue 02:58:07 PM 40.2464 -74.2576 179° South 384 442 16,900 2,111 Climbing FlightAware ADS-B
Tue 02:58:29 PM 40.2069 -74.2566 176° South 385 443 17,800 1,875 Climbing FlightAware ADS-B
Tue 02:58:39 PM 40.1890 -74.2551 166° South 388 447 17,900 828 Climbing FlightAware ADS-B
Tue 02:58:58 PM 40.1564 -74.2444 160° South 394 453 18,200 1,304 Climbing FlightAware ADS-B
Tue 02:59:02 PM 40.1492 -74.2410 159° South 393 452 18,400 1,263 Climbing FlightAware ADS-B
Tue 02:59:36 PM 40.0908 -74.2111 164° South 398 458 19,000 900 Climbing FlightAware ADS-B
Tue 02:59:42 PM 40.0795 -74.2068 172° South 400 460 19,000  Level FlightAware ADS-B
Tue 02:59:48 PM 40.0689 -74.2048 182° South 401 461 19,000 375 Level FlightAware ADS-B
Tue 02:59:58 PM 40.0512 -74.2055 191° South 399 459 19,100 750 Climbing FlightAware ADS-B
Tue 03:00:04 PM 40.0410 -74.2082 202° Southwest 398 458 19,200 2,143 Climbing FlightAware ADS-B
Tue 03:00:12 PM 40.0261 -74.2160 212° Southwest 394 453 19,600 2,455 Climbing FlightAware ADS-B
Tue 03:00:26 PM 40.0058 -74.2324 216° Southwest 390 449 20,100 2,211 Climbing FlightAware ADS-B
Tue 03:00:31 PM 39.9983 -74.2396 220° Southwest 391 450 20,300 1,765 Climbing FlightAware ADS-B
Tue 03:00:43 PM 39.9808 -74.2587 225° Southwest 393 452 20,600 1,680 Climbing FlightAware ADS-B
Tue 03:01:21 PM 39.9332 -74.3215 225° Southwest 397 457 21,700 1,200 Climbing FlightAware ADS-B
Tue 03:01:53 PM 39.8907 -74.3771 224° Southwest 407 468 22,000 286 Climbing FlightAware ADS-B
Tue 03:02:24 PM 39.8488 -74.4298 223° Southwest 405 466 22,000  Level FlightAware ADS-B
Tue 03:02:55 PM 39.8065 -74.4817 223° Southwest 400 460 22,000  Level FlightAware ADS-B
Tue 03:03:29 PM 39.7611 -74.5373 223° Southwest 399 459 22,000  Level FlightAware ADS-B
Tue 03:04:00 PM 39.7199 -74.5881 223° Southwest 399 459 22,000 194 Level FlightAware ADS-B
Tue 03:04:31 PM 39.6787 -74.6387 224° Southwest 398 458 22,200 968 Climbing FlightAware ADS-B
Tue 03:05:02 PM 39.6361 -74.6913 223° Southwest 405 466 23,000 1,475 Climbing FlightAware ADS-B
Tue 03:05:32 PM 39.5951 -74.7417 223° Southwest 410 472 23,700 1,500 Climbing FlightAware ADS-B
Tue 03:06:02 PM 39.5537 -74.7925 223° Southwest 414 476 24,500 1,475 Climbing FlightAware ADS-B
Tue 03:06:33 PM 39.5108 -74.8452 223° Southwest 419 482 25,200 1,364 Climbing FlightAware ADS-B
Tue 03:07:08 PM 39.4617 -74.9053 223° Southwest 423 487 26,000 1,343 Climbing FlightAware ADS-B
Tue 03:07:40 PM 39.4158 -74.9613 223° Southwest 429 494 26,700 1,254 Climbing FlightAware ADS-B
Tue 03:08:15 PM 39.3649 -75.0234 223° Southwest 434 499 27,400 1,238 Climbing FlightAware ADS-B
Tue 03:08:43 PM 39.3233 -75.0739 218° Southwest 436 502 28,000 1,350 Climbing FlightAware ADS-B
Tue 03:08:55 PM 39.3046 -75.0930 212° Southwest 439 505 28,300 1,304 Climbing FlightAware ADS-B
Tue 03:09:06 PM 39.2862 -75.1076 204° Southwest 440 506 28,500 1,071 Climbing FlightAware ADS-B
Tue 03:09:23 PM 39.2542 -75.1261 199° South 444 511 28,800 1,149 Climbing FlightAware ADS-B
Tue 03:09:53 PM 39.1953 -75.1517 198° South 447 514 29,400 1,180 Climbing FlightAware ADS-B
Tue 03:10:24 PM 39.1350 -75.1769 198° South 450 518 30,000 1,048 Climbing FlightAware ADS-B
Tue 03:10:56 PM 39.0719 -75.2031 198° South 453 521 30,500 968 Climbing FlightAware ADS-B
Tue 03:11:26 PM 39.0099 -75.2291 198° South 459 528 31,000 1,238 Climbing FlightAware ADS-B
Tue 03:11:59 PM 38.9440 -75.2565 198° South 458 527 31,800 1,477 Climbing FlightAware ADS-B
Tue 03:12:31 PM 38.8808 -75.2830 198° South 449 517 32,600 1,406 Climbing FlightAware ADS-B
Tue 03:13:03 PM 38.8178 -75.3092 198° South 446 513 33,300 1,258 Climbing FlightAware ADS-B
Tue 03:13:33 PM 38.7589 -75.3338 198° South 444 511 33,900 689 Climbing FlightAware ADS-B
Tue 03:14:04 PM 38.6992 -75.3585 198° South 444 511 34,000 98 Climbing FlightAware ADS-B
Tue 03:14:34 PM 38.6401 -75.3829 198° South 441 507 34,000  Level FlightAware ADS-B
Tue 03:15:11 PM 38.5687 -75.4124 198° South 441 507 34,000  Level FlightAware ADS-B
Tue 03:15:45 PM 38.5034 -75.4393 198° South 439 505 34,000  Level FlightAware ADS-B
Tue 03:16:16 PM 38.4427 -75.4643 198° South 438 504 34,000  Level FlightAware ADS-B
Tue 03:16:50 PM 38.3780 -75.4909 208° Southwest 437 503 34,000  Level FlightAware ADS-B
Tue 03:17:46 PM 38.2794 -75.5577 217° Southwest 436 502 34,000  Level FlightAware ADS-B
Tue 03:17:55 PM 38.2647 -75.5720 218° Southwest 431 496 34,000  Level FlightAware ADS-B
Tue 03:18:29 PM 38.2118 -75.6241 217° Southwest 430 495 34,000  Level FlightAware ADS-B
Tue 03:19:01 PM 38.1607 -75.6738 222° Southwest 429 494 34,000  Level FlightAware ADS-B
Tue 03:19:50 PM 38.1083 -75.7342 220° Southwest 431 496 34,000  Level Washington Center
Tue 03:20:50 PM 38.0164 -75.8317 219° Southwest 431 496 34,000  Level Washington Center
Tue 03:21:55 PM 37.8968 -75.9538 226° Southwest 427 491 34,000  Level FlightAware ADS-B
Tue 03:22:47 PM 37.8266 -76.0463 24° Northeast 425 489 34,000  Level FlightAware ADS-B
Tue 03:22:51 PM 37.8450 -76.0361 225° Southwest 431 496 34,000  Level Washington Center
Tue 03:23:49 PM 37.7528 -76.1511 228° Southwest 431 496 34,000  Level Washington Center
Tue 03:25:26 PM 37.6187 -76.3389 233° Southwest 424 488 34,000  Level FlightAware ADS-B
Tue 03:25:59 PM 37.5794 -76.4048 234° Southwest 424 488 34,000  Level FlightAware ADS-B
Tue 03:26:49 PM 37.5221 -76.5050 234° Southwest 424 488 34,000  Level FlightAware ADS-B
Tue 03:27:25 PM 37.4809 -76.5773 210° Southwest 424 488 34,000  Level FlightAware ADS-B
Tue 03:28:33 PM 37.3672 -76.6594 197° South 426 490 34,000  Level FlightAware ADS-B
Tue 03:29:49 PM 37.2483 -76.7058 195° South 423 487 34,000  Level Washington Center
Tue 03:30:50 PM 37.1331 -76.7433 200° South 423 487 34,000  Level Washington Center
Tue 03:31:49 PM 37.0222 -76.7936 202° Southwest 429 494 34,000  Level Washington Center
Tue 03:32:49 PM 36.9131 -76.8492 204° Southwest 429 494 34,000  Level Washington Center
Tue 03:33:49 PM 36.8019 -76.9122 205° Southwest 434 499 34,000  Level Washington Center
Tue 03:34:50 PM 36.6925 -76.9753 206° Southwest 434 499 34,000  Level Washington Center
Tue 03:35:50 PM 36.5833 -77.0406 211° Southwest 434 499 34,000  Level Washington Center
Tue 03:36:51 PM 36.4803 -77.1161 212° Southwest 439 505 34,000  Level Washington Center
Tue 03:37:51 PM 36.3728 -77.1992 225° Southwest 444 511 34,000  Level Washington Center
Tue 03:38:49 PM 36.2856 -77.3056 224° Southwest 450 518 34,000  Level Washington Center
Tue 03:39:49 PM 36.1944 -77.4142 226° Southwest 450 518 34,000  Level Washington Center
Tue 03:40:50 PM 36.1092 -77.5228 224° Southwest 450 518 34,000  Level Washington Center
Tue 03:41:50 PM 36.0156 -77.6336 224° Southwest 450 518 34,000  Level Washington Center
Tue 03:42:51 PM 35.9261 -77.7389 224° Southwest 444 511 34,000  Level Washington Center
Tue 03:43:49 PM 35.8367 -77.8442 222° Southwest 452 520 34,000  Level Washington Center
Tue 03:44:50 PM 35.7428 -77.9489 205° Southwest 457 526 34,000  Level Washington Center
Tue 03:45:50 PM 35.6331 -78.0122 190° South 444 511 34,000  Level Washington Center
Tue 03:46:51 PM 35.5008 -78.0414 188° South 432 497 34,000  Level Washington Center
Tue 03:47:51 PM 35.3836 -78.0606 183° South 432 497 34,000  Level Washington Center
Tue 03:48:51 PM 35.2644 -78.0672 173° South 437 503 34,000  Level Washington Center
Tue 03:49:49 PM 35.1461 -78.0483 173° South 432 497 34,000  Level Washington Center
Tue 03:50:49 PM 35.0275 -78.0294 190° South 432 497 34,000  Level Washington Center
Tue 03:51:50 PM 34.9081 -78.0564 202° Southwest 424 488 34,000  Level Washington Center
Tue 03:52:51 PM 34.8111 -78.1039 201° Southwest 429 494 34,000  Level Washington Center
Tue 03:53:51 PM 34.6972 -78.1561 203° Southwest 435 501 34,000  Level Washington Center
Tue 03:54:51 PM 34.5856 -78.2131 206° Southwest 435 501 34,000  Level Washington Center
Tue 03:55:49 PM 34.4775 -78.2775 205° Southwest 440 506 34,000  Level Washington Center
Tue 03:56:50 PM 34.3656 -78.3419 177° South 445 512 34,000  Level Washington Center
Tue 04:27:36 PM 30.6022 -78.1111 184° South 436 502 34,000  Level Miami Center
Tue 04:32:36 PM 30.0367 -78.1594 190° South 401 461 34,000  Level Miami Center
Tue 04:33:36 PM 29.9261 -78.1819 187° South 391 450 34,000  Level Miami Center
Tue 04:34:36 PM 29.8133 -78.1975 188° South 387 445 34,000  Level Miami Center
Tue 04:35:36 PM 29.7069 -78.2153 187° South 393 452 34,000  Level Miami Center
Tue 04:36:36 PM 29.5961 -78.2306 188° South 393 452 34,000  Level Miami Center
Tue 04:37:36 PM 29.5083 -78.2439 189° South 398 458 34,000  Level Miami Center
Tue 04:38:36 PM 29.3808 -78.2661 188° South 393 452 34,000  Level Miami Center
Tue 04:39:36 PM 29.2744 -78.2836 187° South 393 452 34,000  Level Miami Center
Tue 04:40:36 PM 29.1658 -78.2989 189° South 394 453 34,000  Level Miami Center
Tue 04:41:36 PM 29.0611 -78.3189 187° South 394 453 34,000  Level Miami Center
Tue 04:42:36 PM 28.9525 -78.3342 188° South 389 448 34,000  Level Miami Center
Tue 04:43:36 PM 28.8439 -78.3517 187° South 389 448 34,000  Level Miami Center
Tue 04:44:36 PM 28.7331 -78.3667 188° South 394 453 34,000  Level Miami Center
Tue 04:45:36 PM 28.6244 -78.3842 190° South 399 459 34,000  Level Miami Center
Tue 04:46:36 PM 28.5239 -78.4039 186° South 391 450 34,000  Level Miami Center
Tue 04:47:36 PM 28.4069 -78.4189 187° South 396 456 34,000  Level Miami Center
Tue 04:48:36 PM 28.2983 -78.4339 189° South 396 456 34,000  Level Miami Center
Tue 04:49:36 PM 28.1917 -78.4536 187° South 396 456 34,000  Level Miami Center
Tue 04:50:36 PM 28.0828 -78.4686 189° South 396 456 34,000  Level Miami Center
Tue 04:51:36 PM 27.9761 -78.4883 186° South 391 450 34,000  Level Miami Center
Tue 04:52:36 PM 27.8694 -78.5008 188° South 391 450 34,000  Level Miami Center
Tue 04:53:36 PM 27.7586 -78.5181 167° South 399 459 34,000  Level Miami Center
Tue 04:54:36 PM 27.6503 -78.4906 162° South 384 442 34,000  Level Miami Center
Tue 04:55:36 PM 27.5400 -78.4494 168° South 401 461 34,000  Level Miami Center
Tue 04:56:36 PM 27.4278 -78.4219 170° South 408 470 34,000  Level Miami Center
Tue 04:57:36 PM 27.3150 -78.3994 178° South 411 473 34,000  Level Miami Center
Tue 04:58:36 PM 27.2044 -78.3956 189° South 411 473 34,000  Level Miami Center
Tue 04:59:36 PM 27.1019 -78.4131 191° South 396 456 34,000  Level Miami Center
Tue 05:00:36 PM 26.9953 -78.4372 192° South 396 456 34,000  Level Miami Center
Tue 05:01:36 PM 26.8861 -78.4636 187° South 391 450 34,000  Level Miami Center
Tue 05:02:36 PM 26.7942 -78.4764 193° South 385 443 34,000  Level Miami Center
Tue 05:03:36 PM 26.6894 -78.5028 189° South 394 453 34,000  Level Miami Center
Tue 05:04:36 PM 26.5847 -78.5222 190° South 389 448 34,000  Level Miami Center
Tue 05:05:36 PM 26.4781 -78.5439 193° South 394 453 34,000  Level Miami Center
Tue 05:06:36 PM 26.3669 -78.5725 191° South 394 453 34,000  Level Miami Center
Tue 05:07:36 PM 26.2622 -78.5942 191° South 394 453 34,000  Level Miami Center
Tue 05:08:36 PM 26.1533 -78.6181 191° South 394 453 34,000  Level Miami Center
Tue 05:09:36 PM 26.0486 -78.6397 191° South 394 453 34,000 300 Level Miami Center
Tue 05:10:36 PM 25.9458 -78.6614 191° South 389 448 34,600 500 Climbing Miami Center
Tue 05:11:36 PM 25.8369 -78.6850 192° South 389 448 35,000 200 Climbing Miami Center
Tue 05:12:36 PM 25.7281 -78.7111 191° South 395 455 35,000  Level Miami Center
Tue 05:13:36 PM 25.6253 -78.7325 190° South 395 455 35,000  Level Miami Center
Tue 05:14:36 PM 25.5228 -78.7517 191° South 389 448 35,000  Level Miami Center
Tue 05:15:36 PM 25.4158 -78.7753 192° South 389 448 35,000  Level Miami Center
Tue 05:16:36 PM 25.3131 -78.7989 191° South 390 449 35,000  Level Miami Center
Tue 05:17:36 PM 25.2042 -78.8225 190° South 395 455 35,000  Level Miami Center
Tue 05:19:36 PM 24.9819 -78.8672 190° South 395 455 35,000  Level Miami Center
Tue 05:20:36 PM 24.8753 -78.8883 192° South 395 455 35,000  Level Miami Center
Tue 05:21:36 PM 24.7683 -78.9142 189° South 395 455 35,000  Level Miami Center
Tue 05:22:36 PM 24.6594 -78.9328 190° South 395 455 35,000  Level Miami Center
Tue 05:23:36 PM 24.5525 -78.9539 193° South 395 455 35,000  Level Miami Center
Tue 05:24:36 PM 24.4392 -78.9817 190° South 400 460 35,000  Level Miami Center
Tue 05:25:36 PM 24.3283 -79.0025 190° South 400 460 35,000  Level Miami Center
Tue 05:26:36 PM 24.2192 -79.0236 192° South 400 460 35,000  Level Miami Center
Tue 05:27:36 PM 24.1061 -79.0489 189° South 411 473 35,000  Level Miami Center
Tue 05:28:36 PM 23.9908 -79.0697 182° South 411 473 35,000  Level Miami Center
Tue 05:36:32 PM 23.0479 -79.0991 182° South  Level FlightAware Approximate
Tue 05:37:32 PM 22.9266 -79.1031 182° South  Level FlightAware Approximate
Tue 05:38:32 PM 22.8054 -79.1070 182° South  Level FlightAware Approximate
Tue 05:39:32 PM 22.6842 -79.1110 182° South  Level FlightAware Approximate
Tue 05:40:32 PM 22.5630 -79.1150 182° South  Level FlightAware Approximate
Tue 05:41:32 PM 22.4417 -79.1189 182° South  Level FlightAware Approximate
Tue 05:42:32 PM 22.3205 -79.1228 182° South  Level FlightAware Approximate
Tue 05:43:32 PM 22.1993 -79.1268 182° South  Level FlightAware Approximate
Tue 05:44:32 PM 22.0780 -79.1307 182° South  Level FlightAware Approximate
Tue 05:45:32 PM 21.9568 -79.1346 182° South  Level FlightAware Approximate
Tue 05:46:32 PM 21.8356 -79.1385 182° South  Level FlightAware Approximate
Tue 05:47:32 PM 21.7143 -79.1424 182° South  Level FlightAware Approximate
Tue 05:48:32 PM 21.5931 -79.1463 182° South  Level FlightAware Approximate
Tue 05:49:32 PM 21.4719 -79.1502 182° South  Level FlightAware Approximate
Tue 05:50:32 PM 21.3507 -79.1541 182° South  Level FlightAware Approximate
Tue 05:51:32 PM 21.2294 -79.1580 182° South  Level FlightAware Approximate
Tue 05:52:32 PM 21.1082 -79.1619 182° South  Level FlightAware Approximate
Tue 05:53:32 PM 20.9870 -79.1658 182° South  Level FlightAware Approximate
Tue 05:54:32 PM 20.8657 -79.1696 182° South  Level FlightAware Approximate
Tue 05:55:32 PM 20.7445 -79.1735 182° South  Level FlightAware Approximate
Tue 05:56:32 PM 20.6233 -79.1773 182° South  Level FlightAware Approximate
Tue 05:57:32 PM 20.5020 -79.1812 182° South  Level FlightAware Approximate
Tue 05:58:32 PM 20.3808 -79.1850 182° South  Level FlightAware Approximate
Tue 05:59:32 PM 20.2596 -79.1889 182° South  Level FlightAware Approximate
Tue 06:00:32 PM 20.1383 -79.1927 182° South  Level FlightAware Approximate
Tue 06:01:32 PM 20.0171 -79.1965 183° South  Level FlightAware Approximate
Tue 06:02:32 PM 19.8962 -79.2032 182° South  Level FlightAware Approximate
Tue 06:03:32 PM 19.7750 -79.2072 182° South  Level FlightAware Approximate
Tue 06:04:32 PM 19.6537 -79.2111 182° South  Level FlightAware Approximate
Tue 06:05:32 PM 19.5325 -79.2150 182° South  Level FlightAware Approximate
Tue 06:06:32 PM 19.4113 -79.2190 182° South  Level FlightAware Approximate
Tue 06:07:32 PM 19.2900 -79.2229 182° South  Level FlightAware Approximate
Tue 06:08:32 PM 19.1688 -79.2268 182° South  Level FlightAware Approximate
Tue 06:09:32 PM 19.0476 -79.2307 182° South  Level FlightAware Approximate
Tue 06:10:32 PM 18.9263 -79.2346 182° South  Level FlightAware Approximate
Tue 06:11:32 PM 18.8051 -79.2385 182° South  Level FlightAware Approximate
Tue 06:12:32 PM 18.6839 -79.2424 182° South  Level FlightAware Approximate
Tue 06:13:32 PM 18.5627 -79.2463 182° South  Level FlightAware Approximate
Tue 06:14:32 PM 18.4414 -79.2502 182° South  Level FlightAware Approximate
Tue 06:15:32 PM 18.3202 -79.2541 182° South  Level FlightAware Approximate
Tue 06:16:32 PM 18.1990 -79.2580 182° South  Level FlightAware Approximate
Tue 06:17:32 PM 18.0777 -79.2618 182° South  Level FlightAware Approximate
Tue 06:18:32 PM 17.9565 -79.2657 182° South  Level FlightAware Approximate
Tue 06:19:32 PM 17.8353 -79.2696 182° South  Level FlightAware Approximate
Tue 06:20:32 PM 17.7141 -79.2734 182° South  Level FlightAware Approximate
Tue 06:21:32 PM 17.5928 -79.2773 182° South  Level FlightAware Approximate
Tue 06:22:32 PM 17.4716 -79.2811 182° South  Level FlightAware Approximate
Tue 06:23:32 PM 17.3504 -79.2849 182° South  Level FlightAware Approximate
Tue 06:24:32 PM 17.2291 -79.2888 182° South  Level FlightAware Approximate
Tue 06:25:32 PM 17.1079 -79.2926 182° South  Level FlightAware Approximate
Tue 06:26:32 PM 16.9867 -79.2964 182° South  Level FlightAware Approximate
Tue 06:27:32 PM 16.8654 -79.3002 182° South  Level FlightAware Approximate
Tue 06:28:32 PM 16.7442 -79.3040 182° South  Level FlightAware Approximate
Tue 06:29:32 PM 16.6230 -79.3078 182° South  Level FlightAware Approximate
Tue 06:30:32 PM 16.5018 -79.3116 182° South  Level FlightAware Approximate
Tue 06:31:32 PM 16.3805 -79.3154 182° South  Level FlightAware Approximate
Tue 06:32:32 PM 16.2593 -79.3192 182° South  Level FlightAware Approximate
Tue 06:33:32 PM 16.1381 -79.3230 182° South  Level FlightAware Approximate
Tue 06:34:32 PM 16.0168 -79.3268 182° South  Level FlightAware Approximate
Tue 06:35:32 PM 15.8956 -79.3306 182° South  Level FlightAware Approximate
Tue 06:36:32 PM 15.7744 -79.3344 182° South  Level FlightAware Approximate
Tue 06:37:32 PM 15.6531 -79.3381 182° South  Level FlightAware Approximate
Tue 06:38:32 PM 15.5319 -79.3419 182° South  Level FlightAware Approximate
Tue 06:39:32 PM 15.4107 -79.3456 182° South  Level FlightAware Approximate
Tue 06:40:32 PM 15.2894 -79.3494 182° South  Level FlightAware Approximate
Tue 06:41:32 PM 15.1682 -79.3532 182° South  Level FlightAware Approximate
Tue 06:42:32 PM 15.0470 -79.3569 178° South  Level FlightAware Approximate
Tue 06:43:32 PM 14.9262 -79.3527 182° South  Level FlightAware Approximate
Tue 06:44:32 PM 14.8050 -79.3565 182° South  Level FlightAware Approximate
Tue 06:45:32 PM 14.6838 -79.3604 182° South  Level FlightAware Approximate
Tue 06:46:32 PM 14.5625 -79.3643 182° South  Level FlightAware Approximate
Tue 06:47:32 PM 14.4413 -79.3681 182° South  Level FlightAware Approximate
Tue 06:48:32 PM 14.3201 -79.3720 182° South  Level FlightAware Approximate
Tue 06:49:32 PM 14.1988 -79.3758 182° South  Level FlightAware Approximate
Tue 06:50:32 PM 14.0776 -79.3797 182° South  Level FlightAware Approximate
Tue 06:51:32 PM 13.9564 -79.3835 182° South  Level FlightAware Approximate
Tue 06:52:32 PM 13.8351 -79.3873 182° South  Level FlightAware Approximate
Tue 06:53:32 PM 13.7139 -79.3912 184° South  Level FlightAware Approximate
Tue 06:54:32 PM 13.5930 -79.4002 182° South  Level FlightAware Approximate
Tue 06:55:32 PM 13.4717 -79.4039 182° South  Level FlightAware Approximate
Tue 06:56:32 PM 13.3505 -79.4076 182° South  Level FlightAware Approximate
Tue 06:57:32 PM 13.2293 -79.4113 182° South  Level FlightAware Approximate
Tue 06:58:32 PM 13.1080 -79.4150 182° South  Level FlightAware Approximate
Tue 06:59:32 PM 12.9868 -79.4187 182° South  Level FlightAware Approximate
Tue 07:00:32 PM 12.8656 -79.4224 182° South  Level FlightAware Approximate
Tue 07:01:32 PM 12.7444 -79.4261 182° South  Level FlightAware Approximate
Tue 07:02:32 PM 12.6231 -79.4298 182° South  Level FlightAware Approximate
Tue 07:03:32 PM 12.5019 -79.4335 182° South  Level FlightAware Approximate
Tue 07:04:32 PM 12.3807 -79.4372 182° South  Level FlightAware Approximate
Tue 07:05:32 PM 12.2594 -79.4409 177° South  Level FlightAware Approximate
Tue 07:06:32 PM 12.1385 -79.4348 182° South  Level FlightAware Approximate
Tue 07:07:32 PM 12.0173 -79.4384 182° South  Level FlightAware Approximate
Tue 07:08:32 PM 11.8961 -79.4420 182° South  Level FlightAware Approximate
Tue 07:09:32 PM 11.7748 -79.4456 182° South  Level FlightAware Approximate
Tue 07:10:32 PM 11.6536 -79.4492 182° South  Level FlightAware Approximate
Tue 07:11:32 PM 11.5324 -79.4529 182° South  Level FlightAware Approximate
Tue 07:12:32 PM 11.4111 -79.4565 182° South  Level FlightAware Approximate
Tue 07:13:32 PM 11.2899 -79.4601 182° South  Level FlightAware Approximate
Tue 07:14:32 PM 11.1687 -79.4637 182° South  Level FlightAware Approximate
Tue 07:15:32 PM 11.0475 -79.4672 182° South  Level FlightAware Approximate
Tue 07:16:32 PM 10.9262 -79.4708 182° South  Level FlightAware Approximate
Tue 07:17:32 PM 10.8050 -79.4744 182° South  Level FlightAware Approximate
Tue 07:18:32 PM 10.6838 -79.4780 182° South  Level FlightAware Approximate
Tue 07:19:32 PM 10.5625 -79.4816 182° South  Level FlightAware Approximate
Tue 07:20:32 PM 10.4413 -79.4852 182° South  Level FlightAware Approximate
Tue 07:21:32 PM 10.3201 -79.4888 182° South  Level FlightAware Approximate
Tue 07:22:32 PM 10.1988 -79.4923 182° South  Level FlightAware Approximate
Tue 07:23:32 PM 10.0776 -79.4959 182° South  Level FlightAware Approximate
Tue 07:24:32 PM 9.9564 -79.4995 182° South  Level FlightAware Approximate
Tue 07:25:32 PM 9.8352 -79.5031 182° South  Level FlightAware Approximate
Tue 07:26:32 PM 9.7139 -79.5066 182° South  Level FlightAware Approximate
Tue 07:27:32 PM 9.5927 -79.5102 182° South  Level FlightAware Approximate
Tue 07:28:32 PM 9.4715 -79.5137 182° South  Level FlightAware Approximate
Tue 07:29:32 PM 9.3502 -79.5173 182° South  Level FlightAware Approximate
Tue 07:30:32 PM 9.2290 -79.5209 182° South  Level FlightAware Approximate
Tue 07:31:32 PM 9.1078 -79.5244 182° South  Level FlightAware Approximate
Tue 07:32:32 PM 8.9866 -79.5280 182° South  Level FlightAware Approximate
Tue 07:33:32 PM 8.8653 -79.5315 182° South  Level FlightAware Approximate
Tue 07:34:32 PM 8.7441 -79.5350 182° South  Level FlightAware Approximate
Tue 07:35:32 PM 8.6229 -79.5386 182° South  Level FlightAware Approximate
Tue 07:36:32 PM 8.5016 -79.5421 182° South  Level FlightAware Approximate
Tue 07:37:32 PM 8.3804 -79.5457 182° South  Level FlightAware Approximate
Tue 07:38:32 PM 8.2592 -79.5492 182° South  Level FlightAware Approximate
Tue 07:39:32 PM 8.1379 -79.5527 182° South  Level FlightAware Approximate
Tue 07:40:32 PM 8.0167 -79.5563 182° South  Level FlightAware Approximate
Tue 07:41:32 PM 7.8955 -79.5598 182° South  Level FlightAware Approximate
Tue 07:42:32 PM 7.7743 -79.5633 182° South  Level FlightAware Approximate
Tue 07:43:32 PM 7.6530 -79.5668 182° South  Level FlightAware Approximate
Tue 07:44:32 PM 7.5318 -79.5704 187° South  Level FlightAware Approximate
Tue 07:45:32 PM 7.4130 -79.5849 182° South  Level FlightAware Approximate
Tue 07:46:32 PM 7.2918 -79.5882 182° South  Level FlightAware Approximate
Tue 07:47:32 PM 7.1705 -79.5915 182° South  Level FlightAware Approximate
Tue 07:48:32 PM 7.0493 -79.5947 182° South  Level FlightAware Approximate
Tue 07:49:32 PM 6.9281 -79.5980 182° South  Level FlightAware Approximate
Tue 07:50:32 PM 6.8068 -79.6013 182° South  Level FlightAware Approximate
Tue 07:51:32 PM 6.6856 -79.6045 178° South  Level FlightAware Approximate
Tue 07:52:32 PM 6.5644 -79.6001 182° South  Level FlightAware Approximate
Tue 07:53:32 PM 6.4432 -79.6036 182° South  Level FlightAware Approximate
Tue 07:54:32 PM 6.3219 -79.6071 182° South  Level FlightAware Approximate
Tue 07:55:32 PM 6.2007 -79.6106 182° South  Level FlightAware Approximate
Tue 07:56:32 PM 6.0795 -79.6142 182° South  Level FlightAware Approximate
Tue 07:57:32 PM 5.9582 -79.6177 182° South  Level FlightAware Approximate
Tue 07:58:32 PM 5.8370 -79.6212 182° South  Level FlightAware Approximate
Tue 07:59:32 PM 5.7158 -79.6247 182° South  Level FlightAware Approximate
Tue 08:00:32 PM 5.5945 -79.6282 182° South  Level FlightAware Approximate
Tue 08:01:32 PM 5.4733 -79.6317 182° South  Level FlightAware Approximate
Tue 08:02:32 PM 5.3521 -79.6352 182° South  Level FlightAware Approximate
Tue 08:03:32 PM 5.2309 -79.6387 182° South  Level FlightAware Approximate
Tue 08:04:32 PM 5.1096 -79.6422 182° South  Level FlightAware Approximate
Tue 08:05:32 PM 4.9884 -79.6458 182° South  Level FlightAware Approximate
Tue 08:06:32 PM 4.8672 -79.6493 182° South  Level FlightAware Approximate
Tue 08:07:32 PM 4.7459 -79.6528 182° South  Level FlightAware Approximate
Tue 08:08:32 PM 4.6247 -79.6563 182° South  Level FlightAware Approximate
Tue 08:09:32 PM 4.5035 -79.6598 182° South  Level FlightAware Approximate
Tue 08:10:32 PM 4.3822 -79.6633 182° South  Level FlightAware Approximate
Tue 08:11:32 PM 4.2610 -79.6668 182° South  Level FlightAware Approximate
Tue 08:12:32 PM 4.1398 -79.6703 182° South  Level FlightAware Approximate
Tue 08:13:32 PM 4.0185 -79.6738 182° South  Level FlightAware Approximate
Tue 08:14:32 PM 3.8973 -79.6773 182° South  Level FlightAware Approximate
Tue 08:15:32 PM 3.7761 -79.6808 182° South  Level FlightAware Approximate
Tue 08:16:32 PM 3.6549 -79.6843 182° South  Level FlightAware Approximate
Tue 08:17:32 PM 3.5336 -79.6878 182° South  Level FlightAware Approximate
Tue 08:18:32 PM 3.4124 -79.6912 182° South  Level FlightAware Approximate
Tue 08:19:32 PM 3.2912 -79.6947 182° South  Level FlightAware Approximate
Tue 08:20:32 PM 3.1699 -79.6982 182° South  Level FlightAware Approximate
Tue 08:21:32 PM 3.0487 -79.7017 182° South  Level FlightAware Approximate
Tue 08:22:32 PM 2.9275 -79.7052 182° South  Level FlightAware Approximate
Tue 08:23:32 PM 2.8063 -79.7087 182° South  Level FlightAware Approximate
Tue 08:24:32 PM 2.6850 -79.7122 182° South  Level FlightAware Approximate
Tue 08:25:32 PM 2.5638 -79.7157 182° South  Level FlightAware Approximate
Tue 08:26:32 PM 2.4426 -79.7191 182° South  Level FlightAware Approximate
Tue 08:27:32 PM 2.3213 -79.7226 182° South  Level FlightAware Approximate
Tue 08:28:32 PM 2.2001 -79.7261 182° South  Level FlightAware Approximate
Tue 08:29:32 PM 2.0789 -79.7296 182° South  Level FlightAware Approximate
Tue 08:30:32 PM 1.9576 -79.7331 181° South  Level FlightAware Approximate
Tue 08:31:32 PM 1.8364 -79.7342 170° South  Level FlightAware Approximate
Tue 08:32:32 PM 1.7168 -79.7138 170° South  Level FlightAware Approximate
Tue 08:33:32 PM 1.5973 -79.6934 170° South  Level FlightAware Approximate
Tue 08:34:32 PM 1.4777 -79.6729 170° South  Level FlightAware Approximate
Tue 08:35:32 PM 1.3582 -79.6525 170° South  Level FlightAware Approximate
Tue 08:36:32 PM 1.2386 -79.6321 170° South  Level FlightAware Approximate
Tue 08:37:32 PM 1.1191 -79.6116 170° South  Level FlightAware Approximate
Tue 08:38:32 PM 0.9995 -79.5912 170° South  Level FlightAware Approximate
Tue 08:39:32 PM 0.8800 -79.5708 170° South  Level FlightAware Approximate
Tue 08:40:32 PM 0.7604 -79.5504 170° South  Level FlightAware Approximate
Tue 08:41:32 PM 0.6409 -79.5300 170° South  Level FlightAware Approximate
Tue 08:42:32 PM 0.5213 -79.5096 170° South  Level FlightAware Approximate
Tue 08:43:32 PM 0.4018 -79.4891 170° South  Level FlightAware Approximate
Tue 08:44:32 PM 0.2822 -79.4687 170° South  Level FlightAware Approximate
Tue 08:45:32 PM 0.1627 -79.4483 170° South  Level FlightAware Approximate
Tue 08:46:32 PM 0.0431 -79.4279 170° South  Level FlightAware Approximate
Tue 08:47:32 PM -0.0764 -79.4075 170° South  Level FlightAware Approximate
Tue 08:48:32 PM -0.1960 -79.3871 170° South  Level FlightAware Approximate
Tue 08:49:32 PM -0.3155 -79.3667 170° South  Level FlightAware Approximate
Tue 08:50:32 PM -0.4351 -79.3463 170° South  Level FlightAware Approximate
Tue 08:51:32 PM -0.5546 -79.3258 170° South  Level FlightAware Approximate
Tue 08:52:32 PM -0.6742 -79.3054 170° South  Level FlightAware Approximate
Tue 08:53:32 PM -0.7937 -79.2850 170° South  Level FlightAware Approximate
Tue 08:54:32 PM -0.9133 -79.2646 170° South  Level FlightAware Approximate
Tue 08:55:32 PM -1.0328 -79.2442 170° South  Level FlightAware Approximate
Tue 08:56:32 PM -1.1524 -79.2237 170° South  Level FlightAware Approximate
Tue 08:57:32 PM -1.2719 -79.2033 170° South  Level FlightAware Approximate
Tue 08:58:32 PM -1.3915 -79.1829 170° South  Level FlightAware Approximate
Tue 08:59:32 PM -1.5110 -79.1625 169° South  Level FlightAware Approximate
Tue 09:00:32 PM -1.6301 -79.1396 169° South  Level FlightAware Approximate
Tue 09:01:32 PM -1.7493 -79.1168 169° South  Level FlightAware Approximate
Tue 09:02:32 PM -1.8684 -79.0940 169° South  Level FlightAware Approximate
Tue 09:03:32 PM -1.9875 -79.0712 169° South  Level FlightAware Approximate
Tue 09:04:32 PM -2.1066 -79.0483 169° South  Level FlightAware Approximate
Tue 09:05:32 PM -2.2257 -79.0255 169° South  Level FlightAware Approximate
Tue 09:06:32 PM -2.3449 -79.0027 169° South  Level FlightAware Approximate
Tue 09:07:32 PM -2.4640 -78.9798 169° South  Level FlightAware Approximate
Tue 09:08:32 PM -2.5831 -78.9570 169° South  Level FlightAware Approximate
Tue 09:09:32 PM -2.7022 -78.9342 169° South  Level FlightAware Approximate
Tue 09:10:32 PM -2.8214 -78.9113 169° South  Level FlightAware Approximate
Tue 09:11:32 PM -2.9405 -78.8884 169° South  Level FlightAware Approximate
Tue 09:12:32 PM -3.0596 -78.8656 169° South  Level FlightAware Approximate
Tue 09:13:32 PM -3.1787 -78.8427 169° South  Level FlightAware Approximate
Tue 09:14:32 PM -3.2978 -78.8198 169° South  Level FlightAware Approximate
Tue 09:15:32 PM -3.4169 -78.7970 169° South  Level FlightAware Approximate
Tue 09:16:32 PM -3.5360 -78.7741 169° South  Level FlightAware Approximate
Tue 09:17:32 PM -3.6551 -78.7512 169° South  Level FlightAware Approximate
Tue 09:18:32 PM -3.7742 -78.7283 169° South  Level FlightAware Approximate
Tue 09:19:32 PM -3.8933 -78.7054 169° South  Level FlightAware Approximate
Tue 09:20:32 PM -4.0125 -78.6825 169° South  Level FlightAware Approximate
Tue 09:21:32 PM -4.1316 -78.6596 169° South  Level FlightAware Approximate
Tue 09:22:32 PM -4.2507 -78.6366 169° South  Level FlightAware Approximate
Tue 09:23:32 PM -4.3698 -78.6137 169° South  Level FlightAware Approximate
Tue 09:24:32 PM -4.4889 -78.5908 169° South  Level FlightAware Approximate
Tue 09:25:32 PM -4.6080 -78.5678 169° South  Level FlightAware Approximate
Tue 09:26:32 PM -4.7271 -78.5449 169° South  Level FlightAware Approximate
Tue 09:27:32 PM -4.8462 -78.5219 169° South  Level FlightAware Approximate
Tue 09:28:32 PM -4.9653 -78.4989 169° South  Level FlightAware Approximate
Tue 09:29:32 PM -5.0844 -78.4760 169° South  Level FlightAware Approximate
Tue 09:30:32 PM -5.2035 -78.4530 169° South  Level FlightAware Approximate
Tue 09:31:32 PM -5.3226 -78.4300 169° South  Level FlightAware Approximate
Tue 09:32:32 PM -5.4417 -78.4070 169° South  Level FlightAware Approximate
Tue 09:33:32 PM -5.5608 -78.3839 169° South  Level FlightAware Approximate
Tue 09:34:32 PM -5.6799 -78.3609 169° South  Level FlightAware Approximate
Tue 09:35:32 PM -5.7990 -78.3379 169° South  Level FlightAware Approximate
Tue 09:36:32 PM -5.9181 -78.3149 169° South  Level FlightAware Approximate
Tue 09:37:32 PM -6.0372 -78.2918 169° South  Level FlightAware Approximate
Tue 09:38:32 PM -6.1563 -78.2688 169° South  Level FlightAware Approximate
Tue 09:39:32 PM -6.2754 -78.2457 169° South  Level FlightAware Approximate
Tue 09:40:32 PM -6.3945 -78.2226 169° South  Level FlightAware Approximate
Tue 09:41:32 PM -6.5136 -78.1995 169° South  Level FlightAware Approximate
Tue 09:42:32 PM -6.6327 -78.1764 169° South  Level FlightAware Approximate
Tue 09:43:32 PM -6.7518 -78.1533 169° South  Level FlightAware Approximate
Tue 09:44:32 PM -6.8709 -78.1302 169° South  Level FlightAware Approximate
Tue 09:45:32 PM -6.9900 -78.1070 169° South  Level FlightAware Approximate
Tue 09:46:32 PM -7.1091 -78.0839 169° South  Level FlightAware Approximate
Tue 09:47:32 PM -7.2281 -78.0607 169° South  Level FlightAware Approximate
Tue 09:48:32 PM -7.3472 -78.0375 169° South  Level FlightAware Approximate
Tue 09:49:32 PM -7.4663 -78.0143 169° South  Level FlightAware Approximate
Tue 09:50:32 PM -7.5854 -77.9911 169° South  Level FlightAware Approximate
Tue 09:51:32 PM -7.7045 -77.9679 169° South  Level FlightAware Approximate
Tue 09:52:32 PM -7.8236 -77.9447 169° South  Level FlightAware Approximate
Tue 09:53:32 PM -7.9426 -77.9215 169° South  Level FlightAware Approximate
Tue 09:54:32 PM -8.0617 -77.8982 169° South  Level FlightAware Approximate
Tue 09:55:32 PM -8.1808 -77.8749 169° South  Level FlightAware Approximate
Tue 09:56:32 PM -8.2999 -77.8517 169° South  Level FlightAware Approximate
Tue 09:57:32 PM -8.4190 -77.8284 169° South  Level FlightAware Approximate
Tue 09:58:32 PM -8.5380 -77.8051 169° South  Level FlightAware Approximate
Tue 09:59:32 PM -8.6571 -77.7818 169° South  Level FlightAware Approximate
Tue 10:00:32 PM -8.7762 -77.7584 169° South  Level FlightAware Approximate
Tue 10:01:32 PM -8.8952 -77.7351 169° South  Level FlightAware Approximate
Tue 10:02:32 PM -9.0143 -77.7117 169° South  Level FlightAware Approximate
Tue 10:03:32 PM -9.1334 -77.6883 169° South  Level FlightAware Approximate
Tue 10:04:32 PM -9.2524 -77.6649 169° South  Level FlightAware Approximate
Tue 10:05:32 PM -9.3715 -77.6415 169° South  Level FlightAware Approximate
Tue 10:06:32 PM -9.4906 -77.6181 169° South  Level FlightAware Approximate
Tue 10:07:32 PM -9.6096 -77.5946 169° South  Level FlightAware Approximate
Tue 10:08:32 PM -9.7287 -77.5712 169° South  Level FlightAware Approximate
Tue 10:09:32 PM -9.8477 -77.5477 169° South  Level FlightAware Approximate
Tue 10:10:32 PM -9.9668 -77.5242 169° South  Level FlightAware Approximate
Tue 10:11:32 PM -10.0858 -77.5007 169° South  Level FlightAware Approximate
Tue 10:12:32 PM -10.2049 -77.4771 169° South  Level FlightAware Approximate
Tue 10:13:32 PM -10.3239 -77.4536 169° South  Level FlightAware Approximate
Tue 10:14:32 PM -10.4430 -77.4300 169° South  Level FlightAware Approximate
Tue 10:15:32 PM -10.5620 -77.4064 169° South  Level FlightAware Approximate
Tue 10:16:32 PM -10.6811 -77.3828 169° South  Level FlightAware Approximate
Tue 10:17:32 PM -10.8001 -77.3592 169° South  Level FlightAware Approximate
Tue 10:18:32 PM -10.9192 -77.3356 169° South  Level FlightAware Approximate
Tue 10:19:32 PM -11.0382 -77.3119 169° South  Level FlightAware Approximate
Tue 10:20:32 PM -11.1572 -77.2882 198° South  Level FlightAware Approximate
Tue 10:21:32 PM -11.2652 -77.3238 198° South  Level FlightAware Approximate

Login

Don't have an account? Register now (free) for customized features, flight alerts, and more!